sensor_id;sensor_type;location;lat;lon;timestamp;P1;durP1;ratioP1;P2;durP2;ratioP2
17991;SDS011;9121;50.926;5.340;2023-03-31T00:01:25;9.47;;;2.23;;
17991;SDS011;9121;50.926;5.340;2023-03-31T00:03:53;8.25;;;2.30;;
17991;SDS011;9121;50.926;5.340;2023-03-31T00:06:27;9.73;;;2.20;;
17991;SDS011;9121;50.926;5.340;2023-03-31T00:08:55;9.83;;;1.97;;
17991;SDS011;9121;50.926;5.340;2023-03-31T00:11:26;10.27;;;2.00;;
17991;SDS011;9121;50.926;5.340;2023-03-31T00:13:55;9.73;;;2.27;;
17991;SDS011;9121;50.926;5.340;2023-03-31T00:16:22;12.93;;;2.33;;
17991;SDS011;9121;50.926;5.340;2023-03-31T00:18:49;11.87;;;2.00;;
17991;SDS011;9121;50.926;5.340;2023-03-31T00:21:17;13.80;;;2.63;;
17991;SDS011;9121;50.926;5.340;2023-03-31T00:23:58;12.50;;;2.37;;
17991;SDS011;9121;50.926;5.340;2023-03-31T00:26:26;16.03;;;2.50;;
17991;SDS011;9121;50.926;5.340;2023-03-31T00:28:55;11.77;;;2.57;;
17991;SDS011;9121;50.926;5.340;2023-03-31T00:31:23;18.27;;;2.97;;
17991;SDS011;9121;50.926;5.340;2023-03-31T00:33:52;15.37;;;2.80;;
17991;SDS011;9121;50.926;5.340;2023-03-31T00:36:20;15.05;;;2.50;;
17991;SDS011;9121;50.926;5.340;2023-03-31T00:38:52;18.57;;;3.17;;
17991;SDS011;9121;50.926;5.340;2023-03-31T00:41:20;14.93;;;2.63;;
17991;SDS011;9121;50.926;5.340;2023-03-31T00:44:08;23.40;;;3.50;;
17991;SDS011;9121;50.926;5.340;2023-03-31T00:46:39;19.43;;;2.87;;
17991;SDS011;9121;50.926;5.340;2023-03-31T00:49:13;23.00;;;3.50;;
17991;SDS011;9121;50.926;5.340;2023-03-31T00:51:44;19.20;;;2.90;;
17991;SDS011;9121;50.926;5.340;2023-03-31T00:54:13;21.77;;;3.30;;
17991;SDS011;9121;50.926;5.340;2023-03-31T00:56:44;19.40;;;3.60;;
17991;SDS011;9121;50.926;5.340;2023-03-31T00:59:14;23.23;;;3.30;;
17991;SDS011;9121;50.926;5.340;2023-03-31T01:01:42;17.70;;;3.27;;
17991;SDS011;9121;50.926;5.340;2023-03-31T01:04:14;21.40;;;3.83;;
17991;SDS011;9121;50.926;5.340;2023-03-31T01:06:49;21.43;;;3.23;;
17991;SDS011;9121;50.926;5.340;2023-03-31T01:09:21;19.00;;;3.27;;
17991;SDS011;9121;50.926;5.340;2023-03-31T01:11:50;28.70;;;3.63;;
17991;SDS011;9121;50.926;5.340;2023-03-31T01:14:18;20.87;;;3.60;;
17991;SDS011;9121;50.926;5.340;2023-03-31T01:16:45;17.20;;;2.80;;
17991;SDS011;9121;50.926;5.340;2023-03-31T01:19:17;26.03;;;3.93;;
17991;SDS011;9121;50.926;5.340;2023-03-31T01:27:55;16.70;;;2.87;;
17991;SDS011;9121;50.926;5.340;2023-03-31T01:30:55;22.17;;;3.67;;
17991;SDS011;9121;50.926;5.340;2023-03-31T01:37:18;15.10;;;3.03;;
17991;SDS011;9121;50.926;5.340;2023-03-31T01:40:08;30.97;;;4.23;;
17991;SDS011;9121;50.926;5.340;2023-03-31T01:42:56;20.37;;;3.13;;
17991;SDS011;9121;50.926;5.340;2023-03-31T01:45:29;18.47;;;2.93;;
17991;SDS011;9121;50.926;5.340;2023-03-31T01:48:04;21.47;;;3.57;;
17991;SDS011;9121;50.926;5.340;2023-03-31T01:50:40;22.83;;;3.97;;
17991;SDS011;9121;50.926;5.340;2023-03-31T01:53:13;12.40;;;2.60;;
17991;SDS011;9121;50.926;5.340;2023-03-31T01:55:49;10.97;;;3.03;;
17991;SDS011;9121;50.926;5.340;2023-03-31T01:58:24;19.37;;;2.53;;
17991;SDS011;9121;50.926;5.340;2023-03-31T02:00:57;19.20;;;2.87;;
17991;SDS011;9121;50.926;5.340;2023-03-31T02:03:28;20.13;;;2.80;;
17991;SDS011;9121;50.926;5.340;2023-03-31T02:06:01;19.33;;;2.70;;
17991;SDS011;9121;50.926;5.340;2023-03-31T02:08:33;21.87;;;4.33;;
17991;SDS011;9121;50.926;5.340;2023-03-31T02:11:06;13.37;;;2.47;;
17991;SDS011;9121;50.926;5.340;2023-03-31T02:13:34;11.20;;;2.07;;
17991;SDS011;9121;50.926;5.340;2023-03-31T02:16:06;16.67;;;2.57;;
17991;SDS011;9121;50.926;5.340;2023-03-31T02:18:36;14.97;;;2.37;;
17991;SDS011;9121;50.926;5.340;2023-03-31T02:21:06;15.03;;;2.77;;
17991;SDS011;9121;50.926;5.340;2023-03-31T02:23:33;16.13;;;2.77;;
17991;SDS011;9121;50.926;5.340;2023-03-31T02:26:03;15.30;;;2.60;;
17991;SDS011;9121;50.926;5.340;2023-03-31T02:28:36;10.40;;;2.10;;
17991;SDS011;9121;50.926;5.340;2023-03-31T02:31:11;12.33;;;2.07;;
17991;SDS011;9121;50.926;5.340;2023-03-31T02:33:44;12.17;;;2.27;;
17991;SDS011;9121;50.926;5.340;2023-03-31T02:36:12;8.40;;;1.80;;
17991;SDS011;9121;50.926;5.340;2023-03-31T02:38:41;10.97;;;2.70;;
17991;SDS011;9121;50.926;5.340;2023-03-31T02:41:12;13.20;;;1.97;;
17991;SDS011;9121;50.926;5.340;2023-03-31T02:43:39;12.00;;;2.10;;
17991;SDS011;9121;50.926;5.340;2023-03-31T02:46:07;17.70;;;2.27;;
17991;SDS011;9121;50.926;5.340;2023-03-31T02:48:36;12.30;;;2.27;;
17991;SDS011;9121;50.926;5.340;2023-03-31T02:54:20;15.30;;;2.33;;
17991;SDS011;9121;50.926;5.340;2023-03-31T02:57:16;16.13;;;2.37;;
17991;SDS011;9121;50.926;5.340;2023-03-31T02:59:57;8.07;;;1.93;;
17991;SDS011;9121;50.926;5.340;2023-03-31T03:02:35;17.57;;;2.07;;
17991;SDS011;9121;50.926;5.340;2023-03-31T03:05:22;9.43;;;1.70;;
17991;SDS011;9121;50.926;5.340;2023-03-31T03:08:01;8.37;;;1.87;;
17991;SDS011;9121;50.926;5.340;2023-03-31T03:10:43;5.07;;;1.70;;
17991;SDS011;9121;50.926;5.340;2023-03-31T03:13:21;10.63;;;1.90;;
17991;SDS011;9121;50.926;5.340;2023-03-31T03:15:55;11.17;;;1.77;;
17991;SDS011;9121;50.926;5.340;2023-03-31T03:18:26;7.47;;;1.80;;
17991;SDS011;9121;50.926;5.340;2023-03-31T03:20:53;6.77;;;1.80;;
17991;SDS011;9121;50.926;5.340;2023-03-31T03:23:20;10.77;;;2.60;;
17991;SDS011;9121;50.926;5.340;2023-03-31T03:25:47;9.13;;;1.77;;
17991;SDS011;9121;50.926;5.340;2023-03-31T03:28:15;7.43;;;2.00;;
17991;SDS011;9121;50.926;5.340;2023-03-31T03:30:44;14.83;;;1.87;;
17991;SDS011;9121;50.926;5.340;2023-03-31T03:33:11;5.17;;;1.47;;
17991;SDS011;9121;50.926;5.340;2023-03-31T03:35:41;8.17;;;1.70;;
17991;SDS011;9121;50.926;5.340;2023-03-31T03:38:08;8.50;;;1.60;;
17991;SDS011;9121;50.926;5.340;2023-03-31T03:40:35;7.37;;;1.50;;
17991;SDS011;9121;50.926;5.340;2023-03-31T03:43:02;4.33;;;1.50;;
17991;SDS011;9121;50.926;5.340;2023-03-31T03:45:29;7.50;;;1.73;;
17991;SDS011;9121;50.926;5.340;2023-03-31T03:47:57;7.23;;;1.60;;
17991;SDS011;9121;50.926;5.340;2023-03-31T03:50:24;6.57;;;1.73;;
17991;SDS011;9121;50.926;5.340;2023-03-31T03:52:51;6.90;;;1.90;;
17991;SDS011;9121;50.926;5.340;2023-03-31T03:55:18;5.27;;;1.40;;
17991;SDS011;9121;50.926;5.340;2023-03-31T03:57:45;14.07;;;1.90;;
17991;SDS011;9121;50.926;5.340;2023-03-31T04:00:12;10.00;;;1.60;;
17991;SDS011;9121;50.926;5.340;2023-03-31T04:02:39;8.00;;;1.83;;
17991;SDS011;9121;50.926;5.340;2023-03-31T04:05:08;13.43;;;1.70;;
17991;SDS011;9121;50.926;5.340;2023-03-31T04:07:35;8.87;;;1.97;;
17991;SDS011;9121;50.926;5.340;2023-03-31T04:10:02;9.33;;;1.63;;
17991;SDS011;9121;50.926;5.340;2023-03-31T04:12:29;12.27;;;1.90;;
17991;SDS011;9121;50.926;5.340;2023-03-31T04:14:58;6.37;;;1.43;;
17991;SDS011;9121;50.926;5.340;2023-03-31T04:17:25;6.93;;;1.30;;
17991;SDS011;9121;50.926;5.340;2023-03-31T04:19:58;4.60;;;1.70;;
17991;SDS011;9121;50.926;5.340;2023-03-31T04:22:29;10.03;;;2.30;;
17991;SDS011;9121;50.926;5.340;2023-03-31T04:24:59;8.33;;;1.50;;
17991;SDS011;9121;50.926;5.340;2023-03-31T04:27:27;6.90;;;1.63;;
17991;SDS011;9121;50.926;5.340;2023-03-31T04:29:55;10.77;;;2.00;;
17991;SDS011;9121;50.926;5.340;2023-03-31T04:32:22;9.03;;;1.60;;
17991;SDS011;9121;50.926;5.340;2023-03-31T04:34:49;9.80;;;1.83;;
17991;SDS011;9121;50.926;5.340;2023-03-31T04:37:16;9.13;;;2.13;;
17991;SDS011;9121;50.926;5.340;2023-03-31T04:39:44;7.47;;;2.07;;
17991;SDS011;9121;50.926;5.340;2023-03-31T04:42:14;10.53;;;1.80;;
17991;SDS011;9121;50.926;5.340;2023-03-31T04:44:41;5.70;;;1.60;;
17991;SDS011;9121;50.926;5.340;2023-03-31T04:47:08;9.63;;;1.77;;
17991;SDS011;9121;50.926;5.340;2023-03-31T04:49:35;11.73;;;2.17;;
17991;SDS011;9121;50.926;5.340;2023-03-31T04:52:02;9.63;;;1.70;;
17991;SDS011;9121;50.926;5.340;2023-03-31T04:54:29;8.97;;;2.10;;
17991;SDS011;9121;50.926;5.340;2023-03-31T04:56:58;6.63;;;1.97;;
17991;SDS011;9121;50.926;5.340;2023-03-31T04:59:25;11.77;;;1.80;;
17991;SDS011;9121;50.926;5.340;2023-03-31T05:01:51;12.47;;;2.07;;
17991;SDS011;9121;50.926;5.340;2023-03-31T05:04:18;14.60;;;2.30;;
17991;SDS011;9121;50.926;5.340;2023-03-31T05:06:45;8.20;;;1.90;;
17991;SDS011;9121;50.926;5.340;2023-03-31T05:09:12;8.37;;;1.63;;
17991;SDS011;9121;50.926;5.340;2023-03-31T05:11:39;16.07;;;2.30;;
17991;SDS011;9121;50.926;5.340;2023-03-31T05:14:08;8.63;;;2.03;;
17991;SDS011;9121;50.926;5.340;2023-03-31T05:16:35;9.23;;;2.47;;
17991;SDS011;9121;50.926;5.340;2023-03-31T05:19:02;18.17;;;2.23;;
17991;SDS011;9121;50.926;5.340;2023-03-31T05:21:29;12.97;;;2.57;;
17991;SDS011;9121;50.926;5.340;2023-03-31T05:23:56;11.80;;;2.43;;
17991;SDS011;9121;50.926;5.340;2023-03-31T05:26:23;16.80;;;2.30;;
17991;SDS011;9121;50.926;5.340;2023-03-31T05:28:51;14.77;;;2.50;;
17991;SDS011;9121;50.926;5.340;2023-03-31T05:31:19;11.27;;;2.30;;
17991;SDS011;9121;50.926;5.340;2023-03-31T05:33:46;13.57;;;2.50;;
17991;SDS011;9121;50.926;5.340;2023-03-31T05:36:14;13.27;;;2.40;;
17991;SDS011;9121;50.926;5.340;2023-03-31T05:38:43;8.17;;;2.27;;
17991;SDS011;9121;50.926;5.340;2023-03-31T05:41:11;14.00;;;2.87;;
17991;SDS011;9121;50.926;5.340;2023-03-31T05:43:40;11.23;;;2.57;;
17991;SDS011;9121;50.926;5.340;2023-03-31T05:46:08;15.37;;;2.97;;
17991;SDS011;9121;50.926;5.340;2023-03-31T05:48:36;13.10;;;2.57;;
17991;SDS011;9121;50.926;5.340;2023-03-31T05:51:03;11.17;;;2.47;;
17991;SDS011;9121;50.926;5.340;2023-03-31T05:53:30;8.87;;;2.10;;
17991;SDS011;9121;50.926;5.340;2023-03-31T05:55:58;9.23;;;2.13;;
17991;SDS011;9121;50.926;5.340;2023-03-31T05:58:26;11.07;;;2.40;;
17991;SDS011;9121;50.926;5.340;2023-03-31T06:01:00;14.97;;;2.13;;
17991;SDS011;9121;50.926;5.340;2023-03-31T06:03:30;14.47;;;2.50;;
17991;SDS011;9121;50.926;5.340;2023-03-31T06:05:58;12.47;;;2.10;;
17991;SDS011;9121;50.926;5.340;2023-03-31T06:08:25;13.47;;;2.17;;
17991;SDS011;9121;50.926;5.340;2023-03-31T06:10:53;8.63;;;2.40;;
17991;SDS011;9121;50.926;5.340;2023-03-31T06:13:20;19.17;;;2.70;;
17991;SDS011;9121;50.926;5.340;2023-03-31T06:15:51;10.77;;;2.17;;
17991;SDS011;9121;50.926;5.340;2023-03-31T06:18:19;9.73;;;1.80;;
17991;SDS011;9121;50.926;5.340;2023-03-31T06:20:46;15.30;;;2.37;;
17991;SDS011;9121;50.926;5.340;2023-03-31T06:23:14;8.60;;;2.00;;
17991;SDS011;9121;50.926;5.340;2023-03-31T06:25:41;11.70;;;2.40;;
17991;SDS011;9121;50.926;5.340;2023-03-31T06:28:08;9.47;;;2.17;;
17991;SDS011;9121;50.926;5.340;2023-03-31T06:30:35;10.50;;;3.03;;
17991;SDS011;9121;50.926;5.340;2023-03-31T06:33:02;10.67;;;2.07;;
17991;SDS011;9121;50.926;5.340;2023-03-31T06:35:29;10.83;;;2.20;;
17991;SDS011;9121;50.926;5.340;2023-03-31T06:37:56;19.83;;;2.87;;
17991;SDS011;9121;50.926;5.340;2023-03-31T06:40:24;13.13;;;2.13;;
17991;SDS011;9121;50.926;5.340;2023-03-31T06:42:51;13.07;;;2.90;;
17991;SDS011;9121;50.926;5.340;2023-03-31T06:45:18;11.43;;;2.10;;
17991;SDS011;9121;50.926;5.340;2023-03-31T06:47:45;16.67;;;2.03;;
17991;SDS011;9121;50.926;5.340;2023-03-31T06:50:12;9.90;;;2.20;;
17991;SDS011;9121;50.926;5.340;2023-03-31T06:52:39;22.60;;;2.83;;
17991;SDS011;9121;50.926;5.340;2023-03-31T06:55:07;13.65;;;2.75;;
17991;SDS011;9121;50.926;5.340;2023-03-31T06:57:36;13.60;;;2.15;;
17991;SDS011;9121;50.926;5.340;2023-03-31T07:00:03;18.87;;;2.83;;
17991;SDS011;9121;50.926;5.340;2023-03-31T07:02:32;10.77;;;2.10;;
17991;SDS011;9121;50.926;5.340;2023-03-31T07:04:59;10.37;;;2.10;;
17991;SDS011;9121;50.926;5.340;2023-03-31T07:07:25;16.57;;;2.77;;
17991;SDS011;9121;50.926;5.340;2023-03-31T07:09:52;13.87;;;2.47;;
17991;SDS011;9121;50.926;5.340;2023-03-31T07:12:20;17.27;;;2.23;;
17991;SDS011;9121;50.926;5.340;2023-03-31T07:14:48;16.50;;;2.88;;
17991;SDS011;9121;50.926;5.340;2023-03-31T07:17:15;15.20;;;3.00;;
17991;SDS011;9121;50.926;5.340;2023-03-31T07:19:42;10.85;;;2.67;;
17991;SDS011;9121;50.926;5.340;2023-03-31T07:22:12;13.88;;;3.13;;
17991;SDS011;9121;50.926;5.340;2023-03-31T07:24:39;21.43;;;3.57;;
17991;SDS011;9121;50.926;5.340;2023-03-31T07:27:06;15.02;;;2.72;;
17991;SDS011;9121;50.926;5.340;2023-03-31T07:29:33;20.25;;;2.83;;
17991;SDS011;9121;50.926;5.340;2023-03-31T07:32:02;15.20;;;2.85;;
17991;SDS011;9121;50.926;5.340;2023-03-31T07:34:29;18.02;;;2.80;;
17991;SDS011;9121;50.926;5.340;2023-03-31T07:36:56;14.43;;;2.85;;
17991;SDS011;9121;50.926;5.340;2023-03-31T07:39:23;15.15;;;2.70;;
17991;SDS011;9121;50.926;5.340;2023-03-31T07:41:50;19.25;;;3.38;;
17991;SDS011;9121;50.926;5.340;2023-03-31T07:44:17;15.88;;;3.00;;
17991;SDS011;9121;50.926;5.340;2023-03-31T07:46:45;16.02;;;3.10;;
17991;SDS011;9121;50.926;5.340;2023-03-31T07:49:14;17.02;;;3.22;;
17991;SDS011;9121;50.926;5.340;2023-03-31T07:51:41;24.98;;;3.22;;
17991;SDS011;9121;50.926;5.340;2023-03-31T07:54:08;19.15;;;3.58;;
17991;SDS011;9121;50.926;5.340;2023-03-31T07:56:35;14.77;;;3.20;;
17991;SDS011;9121;50.926;5.340;2023-03-31T07:59:02;14.25;;;2.85;;
17991;SDS011;9121;50.926;5.340;2023-03-31T08:01:29;16.73;;;3.35;;
17991;SDS011;9121;50.926;5.340;2023-03-31T08:03:56;18.48;;;2.72;;
17991;SDS011;9121;50.926;5.340;2023-03-31T08:06:26;20.67;;;3.78;;
17991;SDS011;9121;50.926;5.340;2023-03-31T08:08:54;14.15;;;2.92;;
17991;SDS011;9121;50.926;5.340;2023-03-31T08:11:21;16.90;;;3.30;;
17991;SDS011;9121;50.926;5.340;2023-03-31T08:13:48;16.77;;;2.95;;
17991;SDS011;9121;50.926;5.340;2023-03-31T08:16:16;17.50;;;3.13;;
17991;SDS011;9121;50.926;5.340;2023-03-31T08:18:43;19.20;;;3.10;;
17991;SDS011;9121;50.926;5.340;2023-03-31T08:21:10;17.95;;;3.13;;
17991;SDS011;9121;50.926;5.340;2023-03-31T08:23:38;16.13;;;3.30;;
17991;SDS011;9121;50.926;5.340;2023-03-31T08:26:06;17.60;;;3.53;;
17991;SDS011;9121;50.926;5.340;2023-03-31T08:28:34;19.63;;;3.90;;
17991;SDS011;9121;50.926;5.340;2023-03-31T08:31:02;19.35;;;3.47;;
17991;SDS011;9121;50.926;5.340;2023-03-31T08:33:30;19.90;;;3.50;;
17991;SDS011;9121;50.926;5.340;2023-03-31T08:36:00;17.00;;;3.78;;
17991;SDS011;9121;50.926;5.340;2023-03-31T08:38:29;20.67;;;3.60;;
17991;SDS011;9121;50.926;5.340;2023-03-31T08:41:00;19.13;;;3.17;;
17991;SDS011;9121;50.926;5.340;2023-03-31T08:43:30;18.50;;;2.95;;
17991;SDS011;9121;50.926;5.340;2023-03-31T08:46:00;32.35;;;4.30;;
17991;SDS011;9121;50.926;5.340;2023-03-31T08:48:29;18.30;;;3.90;;
17991;SDS011;9121;50.926;5.340;2023-03-31T08:51:02;21.33;;;3.10;;
17991;SDS011;9121;50.926;5.340;2023-03-31T08:53:33;22.85;;;3.63;;
17991;SDS011;9121;50.926;5.340;2023-03-31T08:56:08;20.50;;;3.20;;
17991;SDS011;9121;50.926;5.340;2023-03-31T08:58:40;29.25;;;3.97;;
17991;SDS011;9121;50.926;5.340;2023-03-31T09:01:13;19.10;;;3.88;;
17991;SDS011;9121;50.926;5.340;2023-03-31T09:03:55;18.13;;;3.03;;
17991;SDS011;9121;50.926;5.340;2023-03-31T09:06:35;15.15;;;3.33;;
17991;SDS011;9121;50.926;5.340;2023-03-31T09:09:09;16.67;;;2.97;;
17991;SDS011;9121;50.926;5.340;2023-03-31T09:11:44;17.60;;;2.97;;
17991;SDS011;9121;50.926;5.340;2023-03-31T09:14:24;18.25;;;3.78;;
17991;SDS011;9121;50.926;5.340;2023-03-31T09:16:58;13.93;;;2.83;;
17991;SDS011;9121;50.926;5.340;2023-03-31T09:19:36;20.40;;;3.50;;
17991;SDS011;9121;50.926;5.340;2023-03-31T09:22:09;10.27;;;2.67;;
17991;SDS011;9121;50.926;5.340;2023-03-31T09:24:42;20.15;;;3.45;;
17991;SDS011;9121;50.926;5.340;2023-03-31T09:27:17;13.85;;;2.80;;
17991;SDS011;9121;50.926;5.340;2023-03-31T09:29:47;11.90;;;2.53;;
17991;SDS011;9121;50.926;5.340;2023-03-31T09:32:19;10.85;;;2.28;;
17991;SDS011;9121;50.926;5.340;2023-03-31T09:34:49;20.60;;;3.20;;
17991;SDS011;9121;50.926;5.340;2023-03-31T09:37:18;14.00;;;2.60;;
17991;SDS011;9121;50.926;5.340;2023-03-31T09:39:45;15.38;;;2.50;;
17991;SDS011;9121;50.926;5.340;2023-03-31T09:42:12;10.85;;;2.40;;
17991;SDS011;9121;50.926;5.340;2023-03-31T09:44:42;13.80;;;3.17;;
17991;SDS011;9121;50.926;5.340;2023-03-31T09:47:12;9.52;;;2.25;;
17991;SDS011;9121;50.926;5.340;2023-03-31T09:49:43;9.63;;;1.90;;
17991;SDS011;9121;50.926;5.340;2023-03-31T09:52:13;11.48;;;2.45;;
17991;SDS011;9121;50.926;5.340;2023-03-31T09:54:45;14.00;;;2.60;;
17991;SDS011;9121;50.926;5.340;2023-03-31T09:57:22;11.60;;;2.22;;
17991;SDS011;9121;50.926;5.340;2023-03-31T09:59:52;8.97;;;2.10;;
17991;SDS011;9121;50.926;5.340;2023-03-31T10:02:37;8.38;;;2.00;;
17991;SDS011;9121;50.926;5.340;2023-03-31T10:05:17;8.32;;;1.98;;
17991;SDS011;9121;50.926;5.340;2023-03-31T10:07:52;8.88;;;2.25;;
17991;SDS011;9121;50.926;5.340;2023-03-31T10:10:37;9.90;;;2.28;;
17991;SDS011;9121;50.926;5.340;2023-03-31T10:13:10;15.50;;;2.10;;
17991;SDS011;9121;50.926;5.340;2023-03-31T10:15:43;11.98;;;2.53;;
17991;SDS011;9121;50.926;5.340;2023-03-31T10:18:12;11.10;;;2.95;;
17991;SDS011;9121;50.926;5.340;2023-03-31T10:20:42;13.48;;;3.58;;
17991;SDS011;9121;50.926;5.340;2023-03-31T10:23:14;16.27;;;2.70;;
17991;SDS011;9121;50.926;5.340;2023-03-31T10:25:42;17.83;;;2.83;;
17991;SDS011;9121;50.926;5.340;2023-03-31T10:28:11;21.40;;;3.15;;
17991;SDS011;9121;50.926;5.340;2023-03-31T10:30:47;20.65;;;3.05;;
17991;SDS011;9121;50.926;5.340;2023-03-31T10:33:16;15.27;;;2.70;;
17991;SDS011;9121;50.926;5.340;2023-03-31T10:35:46;18.65;;;3.45;;
17991;SDS011;9121;50.926;5.340;2023-03-31T10:38:16;23.73;;;3.78;;
17991;SDS011;9121;50.926;5.340;2023-03-31T10:40:49;14.45;;;3.05;;
17991;SDS011;9121;50.926;5.340;2023-03-31T10:43:18;20.40;;;3.53;;
17991;SDS011;9121;50.926;5.340;2023-03-31T10:45:52;21.33;;;3.50;;
17991;SDS011;9121;50.926;5.340;2023-03-31T10:48:23;23.10;;;3.30;;
17991;SDS011;9121;50.926;5.340;2023-03-31T10:50:51;16.38;;;2.95;;
17991;SDS011;9121;50.926;5.340;2023-03-31T10:53:19;22.00;;;3.70;;
17991;SDS011;9121;50.926;5.340;2023-03-31T10:55:50;22.00;;;4.32;;
17991;SDS011;9121;50.926;5.340;2023-03-31T10:58:27;25.10;;;3.60;;
17991;SDS011;9121;50.926;5.340;2023-03-31T11:01:19;18.52;;;3.35;;
17991;SDS011;9121;50.926;5.340;2023-03-31T11:03:59;19.42;;;3.10;;
17991;SDS011;9121;50.926;5.340;2023-03-31T11:06:48;21.48;;;2.90;;
17991;SDS011;9121;50.926;5.340;2023-03-31T11:09:29;19.00;;;3.35;;
17991;SDS011;9121;50.926;5.340;2023-03-31T11:12:05;19.30;;;3.05;;
17991;SDS011;9121;50.926;5.340;2023-03-31T11:14:39;14.65;;;3.03;;
17991;SDS011;9121;50.926;5.340;2023-03-31T11:17:22;14.90;;;2.78;;
17991;SDS011;9121;50.926;5.340;2023-03-31T11:19:58;15.93;;;2.75;;
17991;SDS011;9121;50.926;5.340;2023-03-31T11:22:39;10.20;;;2.35;;
17991;SDS011;9121;50.926;5.340;2023-03-31T11:25:19;13.05;;;3.00;;
17991;SDS011;9121;50.926;5.340;2023-03-31T11:27:57;12.85;;;2.53;;
17991;SDS011;9121;50.926;5.340;2023-03-31T11:30:35;18.88;;;3.58;;
17991;SDS011;9121;50.926;5.340;2023-03-31T11:33:17;17.38;;;3.10;;
17991;SDS011;9121;50.926;5.340;2023-03-31T11:36:00;12.65;;;3.15;;
17991;SDS011;9121;50.926;5.340;2023-03-31T11:38:38;14.07;;;2.55;;
17991;SDS011;9121;50.926;5.340;2023-03-31T11:41:16;15.50;;;3.50;;
17991;SDS011;9121;50.926;5.340;2023-03-31T11:43:47;15.57;;;2.67;;
17991;SDS011;9121;50.926;5.340;2023-03-31T11:46:16;18.90;;;3.25;;
17991;SDS011;9121;50.926;5.340;2023-03-31T11:48:50;15.27;;;2.65;;
17991;SDS011;9121;50.926;5.340;2023-03-31T11:51:23;15.73;;;2.78;;
17991;SDS011;9121;50.926;5.340;2023-03-31T11:53:52;9.07;;;2.08;;
17991;SDS011;9121;50.926;5.340;2023-03-31T11:56:32;11.95;;;1.85;;
17991;SDS011;9121;50.926;5.340;2023-03-31T11:59:03;8.60;;;1.88;;
17991;SDS011;9121;50.926;5.340;2023-03-31T12:01:33;8.63;;;1.75;;
17991;SDS011;9121;50.926;5.340;2023-03-31T12:04:08;12.13;;;2.50;;
17991;SDS011;9121;50.926;5.340;2023-03-31T12:06:45;9.43;;;2.22;;
17991;SDS011;9121;50.926;5.340;2023-03-31T12:09:15;11.40;;;2.22;;
17991;SDS011;9121;50.926;5.340;2023-03-31T12:11:47;11.43;;;2.45;;
17991;SDS011;9121;50.926;5.340;2023-03-31T12:14:23;8.52;;;2.13;;
17991;SDS011;9121;50.926;5.340;2023-03-31T12:16:55;10.77;;;2.28;;
17991;SDS011;9121;50.926;5.340;2023-03-31T12:19:29;11.60;;;2.45;;
17991;SDS011;9121;50.926;5.340;2023-03-31T12:22:13;11.60;;;2.30;;
17991;SDS011;9121;50.926;5.340;2023-03-31T12:24:44;12.43;;;2.47;;
17991;SDS011;9121;50.926;5.340;2023-03-31T12:27:12;14.07;;;2.40;;
17991;SDS011;9121;50.926;5.340;2023-03-31T12:29:44;16.27;;;2.55;;
17991;SDS011;9121;50.926;5.340;2023-03-31T12:32:17;12.45;;;2.35;;
17991;SDS011;9121;50.926;5.340;2023-03-31T12:34:50;10.68;;;2.17;;
17991;SDS011;9121;50.926;5.340;2023-03-31T12:37:26;20.27;;;2.63;;
17991;SDS011;9121;50.926;5.340;2023-03-31T12:40:23;11.98;;;2.28;;
17991;SDS011;9121;50.926;5.340;2023-03-31T12:43:05;13.77;;;2.30;;
17991;SDS011;9121;50.926;5.340;2023-03-31T12:45:49;9.88;;;2.47;;
17991;SDS011;9121;50.926;5.340;2023-03-31T12:48:41;11.27;;;2.17;;
17991;SDS011;9121;50.926;5.340;2023-03-31T12:51:29;8.35;;;1.85;;
17991;SDS011;9121;50.926;5.340;2023-03-31T12:54:13;9.00;;;1.98;;
17991;SDS011;9121;50.926;5.340;2023-03-31T12:59:41;11.13;;;2.10;;
17991;SDS011;9121;50.926;5.340;2023-03-31T13:02:21;13.00;;;3.42;;
17991;SDS011;9121;50.926;5.340;2023-03-31T13:04:50;13.32;;;2.50;;
17991;SDS011;9121;50.926;5.340;2023-03-31T13:10:26;10.10;;;2.78;;
17991;SDS011;9121;50.926;5.340;2023-03-31T13:13:01;12.70;;;1.90;;
17991;SDS011;9121;50.926;5.340;2023-03-31T13:15:30;9.50;;;2.53;;
17991;SDS011;9121;50.926;5.340;2023-03-31T13:17:58;14.15;;;2.35;;
17991;SDS011;9121;50.926;5.340;2023-03-31T13:20:30;24.00;;;3.28;;
17991;SDS011;9121;50.926;5.340;2023-03-31T13:23:02;15.88;;;2.72;;
17991;SDS011;9121;50.926;5.340;2023-03-31T13:25:45;11.93;;;2.45;;
17991;SDS011;9121;50.926;5.340;2023-03-31T13:28:15;11.77;;;3.00;;
17991;SDS011;9121;50.926;5.340;2023-03-31T13:30:57;11.82;;;2.30;;
17991;SDS011;9121;50.926;5.340;2023-03-31T13:33:36;16.30;;;3.00;;
17991;SDS011;9121;50.926;5.340;2023-03-31T13:36:25;24.33;;;3.08;;
17991;SDS011;9121;50.926;5.340;2023-03-31T13:45:31;15.13;;;2.33;;
17991;SDS011;9121;50.926;5.340;2023-03-31T13:48:16;14.37;;;2.93;;
17991;SDS011;9121;50.926;5.340;2023-03-31T13:57:11;14.80;;;2.03;;
17991;SDS011;9121;50.926;5.340;2023-03-31T14:00:13;10.07;;;1.85;;
17991;SDS011;9121;50.926;5.340;2023-03-31T14:03:04;9.38;;;1.80;;
17991;SDS011;9121;50.926;5.340;2023-03-31T14:05:42;9.98;;;1.90;;
17991;SDS011;9121;50.926;5.340;2023-03-31T14:08:13;6.70;;;1.67;;
17991;SDS011;9121;50.926;5.340;2023-03-31T14:10:44;11.45;;;2.25;;
17991;SDS011;9121;50.926;5.340;2023-03-31T14:13:14;8.23;;;1.80;;
17991;SDS011;9121;50.926;5.340;2023-03-31T14:15:43;7.07;;;1.50;;
17991;SDS011;9121;50.926;5.340;2023-03-31T14:18:15;14.25;;;2.42;;
17991;SDS011;9121;50.926;5.340;2023-03-31T14:20:53;9.50;;;1.92;;
17991;SDS011;9121;50.926;5.340;2023-03-31T14:23:34;7.43;;;1.88;;
17991;SDS011;9121;50.926;5.340;2023-03-31T14:26:09;9.68;;;1.73;;
17991;SDS011;9121;50.926;5.340;2023-03-31T14:28:51;8.52;;;1.50;;
17991;SDS011;9121;50.926;5.340;2023-03-31T14:31:27;5.82;;;1.70;;
17991;SDS011;9121;50.926;5.340;2023-03-31T14:37:04;7.07;;;1.40;;
17991;SDS011;9121;50.926;5.340;2023-03-31T14:39:35;8.10;;;1.67;;
17991;SDS011;9121;50.926;5.340;2023-03-31T14:42:09;6.20;;;1.50;;
17991;SDS011;9121;50.926;5.340;2023-03-31T14:44:40;10.45;;;1.60;;
17991;SDS011;9121;50.926;5.340;2023-03-31T14:47:12;6.75;;;1.58;;
17991;SDS011;9121;50.926;5.340;2023-03-31T14:49:40;4.53;;;1.58;;
17991;SDS011;9121;50.926;5.340;2023-03-31T14:52:12;4.32;;;1.05;;
17991;SDS011;9121;50.926;5.340;2023-03-31T14:54:43;6.05;;;1.30;;
17991;SDS011;9121;50.926;5.340;2023-03-31T14:57:12;3.88;;;1.23;;
17991;SDS011;9121;50.926;5.340;2023-03-31T14:59:44;2.70;;;1.02;;
17991;SDS011;9121;50.926;5.340;2023-03-31T15:02:15;3.72;;;1.00;;
17991;SDS011;9121;50.926;5.340;2023-03-31T15:04:47;4.85;;;0.90;;
17991;SDS011;9121;50.926;5.340;2023-03-31T15:07:16;3.03;;;1.00;;
17991;SDS011;9121;50.926;5.340;2023-03-31T15:09:43;4.10;;;1.08;;
17991;SDS011;9121;50.926;5.340;2023-03-31T15:12:14;4.45;;;1.00;;
17991;SDS011;9121;50.926;5.340;2023-03-31T15:14:45;5.25;;;1.27;;
17991;SDS011;9121;50.926;5.340;2023-03-31T15:17:19;3.70;;;1.00;;
17991;SDS011;9121;50.926;5.340;2023-03-31T15:19:51;3.03;;;0.77;;
17991;SDS011;9121;50.926;5.340;2023-03-31T15:22:20;3.88;;;0.90;;
17991;SDS011;9121;50.926;5.340;2023-03-31T15:24:49;3.63;;;1.10;;
17991;SDS011;9121;50.926;5.340;2023-03-31T15:27:17;2.38;;;0.77;;
17991;SDS011;9121;50.926;5.340;2023-03-31T15:29:51;3.63;;;0.88;;
17991;SDS011;9121;50.926;5.340;2023-03-31T15:32:21;5.10;;;1.17;;
17991;SDS011;9121;50.926;5.340;2023-03-31T15:34:51;1.40;;;0.75;;
17991;SDS011;9121;50.926;5.340;2023-03-31T15:37:19;3.97;;;1.42;;
17991;SDS011;9121;50.926;5.340;2023-03-31T15:39:49;4.10;;;1.00;;
17991;SDS011;9121;50.926;5.340;2023-03-31T15:42:16;5.43;;;1.48;;
17991;SDS011;9121;50.926;5.340;2023-03-31T15:44:44;5.37;;;1.30;;
17991;SDS011;9121;50.926;5.340;2023-03-31T15:47:16;5.07;;;1.52;;
17991;SDS011;9121;50.926;5.340;2023-03-31T15:49:51;4.50;;;0.90;;
17991;SDS011;9121;50.926;5.340;2023-03-31T15:52:20;8.33;;;1.70;;
17991;SDS011;9121;50.926;5.340;2023-03-31T15:54:50;3.22;;;1.10;;